TimeCST,TemperatureF,Dew PointF,Humidity,Sea Level PressureIn,VisibilityMPH,Wind Direction,Wind SpeedMPH,Gust SpeedMPH,PrecipitationIn,Events,Conditions,WindDirDegrees,DateUTC
12:15 AM,30.2,26.6,86,30.44,10.0,NNW,9.2,-,N/A,,Clear,340,2012-11-16 06:15:00
12:35 AM,29.1,25.9,88,30.44,10.0,NNW,8.1,-,N/A,,Clear,340,2012-11-16 06:35:00
12:55 AM,30.2,27.1,88,30.45,10.0,NNW,6.9,-,N/A,,Clear,340,2012-11-16 06:55:00
1:15 AM,29.8,26.6,88,30.45,10.0,NNW,4.6,-,N/A,,Clear,340,2012-11-16 07:15:00
1:35 AM,28.9,25.9,88,30.45,10.0,NNW,4.6,-,N/A,,Clear,330,2012-11-16 07:35:00
1:55 AM,28.8,25.5,88,30.46,10.0,NNW,4.6,-,N/A,,Clear,340,2012-11-16 07:55:00
2:15 AM,28.2,25.3,89,30.46,10.0,NNW,4.6,-,N/A,,Clear,330,2012-11-16 08:15:00
2:35 AM,27.5,25.0,90,30.46,10.0,NNW,4.6,-,N/A,,Clear,340,2012-11-16 08:35:00
2:55 AM,26.6,24.3,91,30.46,10.0,NNW,5.8,-,N/A,,Clear,330,2012-11-16 08:55:00
3:15 AM,27.3,25.2,92,30.46,10.0,NNW,4.6,-,N/A,,Clear,340,2012-11-16 09:15:00
3:35 AM,26.4,24.1,91,30.46,10.0,NNW,3.5,-,N/A,,Clear,340,2012-11-16 09:35:00
3:55 AM,25.3,23.2,91,30.45,10.0,NNW,4.6,-,N/A,,Clear,330,2012-11-16 09:55:00
4:15 AM,24.3,22.1,91,30.44,10.0,NNW,4.6,-,N/A,,Clear,330,2012-11-16 10:15:00
4:35 AM,25.2,23.0,91,30.44,10.0,NNW,4.6,-,N/A,,Clear,340,2012-11-16 10:35:00
4:55 AM,23.7,21.6,91,30.44,10.0,North,5.8,-,N/A,,Clear,350,2012-11-16 10:55:00
5:15 AM,23.7,21.6,91,30.44,10.0,NNW,5.8,-,N/A,,Clear,340,2012-11-16 11:15:00
5:35 AM,23.0,20.8,91,30.43,10.0,NNW,3.5,-,N/A,,Clear,340,2012-11-16 11:35:00
5:55 AM,21.9,20.1,93,30.42,10.0,NW,3.5,-,N/A,,Clear,320,2012-11-16 11:55:00
6:15 AM,25.3,23.5,93,30.42,10.0,Calm,Calm,-,N/A,,Clear,0,2012-11-16 12:15:00
6:35 AM,23.7,21.7,92,30.42,10.0,North,3.5,-,N/A,,Clear,350,2012-11-16 12:35:00
6:55 AM,22.8,21.0,93,30.43,10.0,NNW,4.6,-,N/A,,Clear,340,2012-11-16 12:55:00
7:15 AM,23.0,21.6,94,30.43,7.0,NW,3.5,-,N/A,,Clear,320,2012-11-16 13:15:00
7:35 AM,25.0,23.2,93,30.44,10.0,NNW,3.5,-,N/A,,Clear,340,2012-11-16 13:35:00
7:55 AM,24.6,22.6,92,30.45,10.0,Calm,Calm,-,N/A,,Clear,0,2012-11-16 13:55:00
8:15 AM,27.1,25.0,92,30.45,10.0,Calm,Calm,-,N/A,,Clear,0,2012-11-16 14:15:00
8:35 AM,29.7,26.4,88,30.46,10.0,Calm,Calm,-,N/A,,Clear,0,2012-11-16 14:35:00
8:55 AM,31.3,26.4,82,30.46,10.0,Calm,Calm,-,N/A,,Clear,0,2012-11-16 14:55:00
9:15 AM,32.0,26.2,79,30.46,10.0,Calm,Calm,-,N/A,,Clear,0,2012-11-16 15:15:00
9:35 AM,34.3,27.9,77,30.46,10.0,Calm,Calm,-,N/A,,Clear,0,2012-11-16 15:35:00
9:55 AM,36.1,28.2,73,30.46,10.0,SE,3.5,-,N/A,,Clear,130,2012-11-16 15:55:00
10:15 AM,37.6,28.9,71,30.45,10.0,SSE,3.5,-,N/A,,Clear,150,2012-11-16 16:15:00
10:35 AM,39.6,29.8,68,30.45,10.0,SSE,4.6,-,N/A,,Clear,160,2012-11-16 16:35:00
10:55 AM,41.2,30.7,66,30.46,10.0,South,4.6,-,N/A,,Clear,180,2012-11-16 16:55:00
11:15 AM,43.0,31.1,63,30.44,10.0,SSE,5.8,-,N/A,,Clear,150,2012-11-16 17:15:00
11:35 AM,45.5,32.0,59,30.43,10.0,SSE,8.1,-,N/A,,Clear,150,2012-11-16 17:35:00
11:55 AM,47.5,32.4,56,30.41,10.0,South,6.9,-,N/A,,Clear,170,2012-11-16 17:55:00
12:15 PM,49.8,32.5,51,30.40,10.0,South,8.1,-,N/A,,Clear,170,2012-11-16 18:15:00
12:35 PM,50.7,32.4,49,30.39,10.0,South,8.1,-,N/A,,Clear,170,2012-11-16 18:35:00
12:55 PM,51.4,32.9,49,30.38,10.0,SSE,11.5,-,N/A,,Clear,160,2012-11-16 18:55:00
1:15 PM,53.1,33.3,47,30.37,10.0,SE,10.4,17.3,N/A,,Clear,140,2012-11-16 19:15:00
1:35 PM,54.5,32.7,44,30.36,10.0,SSE,12.7,16.1,N/A,,Clear,160,2012-11-16 19:35:00
1:55 PM,55.0,32.0,42,30.35,10.0,SSE,12.7,17.3,N/A,,Clear,160,2012-11-16 19:55:00
2:15 PM,55.8,32.0,41,30.34,10.0,SSE,13.8,-,N/A,,Clear,160,2012-11-16 20:15:00
2:35 PM,56.3,32.0,40,30.33,10.0,SSE,11.5,-,N/A,,Clear,160,2012-11-16 20:35:00
2:55 PM,56.5,32.0,39,30.32,10.0,SSE,13.8,18.4,N/A,,Clear,150,2012-11-16 20:55:00
3:15 PM,56.5,31.5,39,30.31,10.0,SSE,13.8,18.4,N/A,,Clear,150,2012-11-16 21:15:00
3:35 PM,56.5,31.8,39,30.31,10.0,SSE,16.1,-,N/A,,Clear,150,2012-11-16 21:35:00
3:55 PM,55.8,32.2,41,30.31,10.0,SSE,11.5,-,N/A,,Clear,150,2012-11-16 21:55:00
4:15 PM,55.0,32.5,43,30.30,10.0,SSE,10.4,-,N/A,,Clear,150,2012-11-16 22:15:00
4:35 PM,53.8,32.5,45,30.31,10.0,SSE,11.5,-,N/A,,Clear,150,2012-11-16 22:35:00
4:55 PM,51.6,32.9,49,30.30,10.0,SSE,11.5,-,N/A,,Clear,150,2012-11-16 22:55:00
5:15 PM,48.4,32.2,54,30.29,10.0,SE,11.5,-,N/A,,Clear,140,2012-11-16 23:15:00
5:35 PM,45.7,32.0,59,30.30,10.0,SE,9.2,-,N/A,,Clear,140,2012-11-16 23:35:00
5:55 PM,43.7,31.8,63,30.30,10.0,SSE,10.4,-,N/A,,Clear,150,2012-11-16 23:55:00
6:15 PM,43.7,32.0,63,30.29,10.0,SSE,9.2,-,N/A,,Clear,150,2012-11-17 00:15:00
6:35 PM,44.1,32.2,63,30.29,10.0,SE,10.4,-,N/A,,Clear,140,2012-11-17 00:35:00
6:55 PM,42.8,32.0,66,30.29,10.0,SE,8.1,-,N/A,,Clear,130,2012-11-17 00:55:00
7:15 PM,40.3,31.8,72,30.29,10.0,SE,9.2,-,N/A,,Clear,130,2012-11-17 01:15:00
7:35 PM,39.7,31.8,73,30.29,10.0,SSE,10.4,-,N/A,,Clear,150,2012-11-17 01:35:00
7:55 PM,41.0,32.5,72,30.28,10.0,SSE,8.1,-,N/A,,Clear,150,2012-11-17 01:55:00
8:15 PM,39.9,32.2,74,30.28,10.0,SSE,9.2,-,N/A,,Clear,160,2012-11-17 02:15:00
8:35 PM,39.4,32.0,75,30.27,10.0,SSE,8.1,-,N/A,,Clear,160,2012-11-17 02:35:00
8:55 PM,38.1,32.0,79,30.28,10.0,SSE,8.1,-,N/A,,Clear,160,2012-11-17 02:55:00
9:15 PM,38.8,32.2,77,30.28,10.0,SSE,10.4,-,N/A,,Clear,160,2012-11-17 03:15:00
9:35 PM,38.5,32.2,78,30.28,10.0,SSE,10.4,-,N/A,,Clear,160,2012-11-17 03:35:00
9:55 PM,39.4,32.9,78,30.28,10.0,SSE,10.4,-,N/A,,Clear,160,2012-11-17 03:55:00
10:15 PM,39.6,32.9,77,30.28,10.0,SSE,8.1,-,N/A,,Clear,150,2012-11-17 04:15:00
10:35 PM,39.9,33.1,77,30.28,10.0,SSE,10.4,-,N/A,,Clear,160,2012-11-17 04:35:00
10:55 PM,39.9,33.1,77,30.28,10.0,SSE,10.4,-,N/A,,Clear,160,2012-11-17 04:55:00
11:15 PM,39.6,32.9,77,30.28,10.0,SSE,9.2,-,N/A,,Clear,150,2012-11-17 05:15:00
11:35 PM,38.3,32.0,78,30.29,10.0,SSE,8.1,-,N/A,,Clear,160,2012-11-17 05:35:00
11:55 PM,35.8,31.6,85,30.28,10.0,SSE,6.9,-,N/A,,Clear,150,2012-11-17 05:55:00